Time;durP1;ratioP1;P1;durP2;ratioP2;P2;SDS_P1;SDS_P2;PMS_P1;PMS_P2;Temp;Humidity;BMP_temperature;BMP_pressure;BME280_temperature;BME280_humidity;BME280_pressure;Samples;Min_cycle;Max_cycle;Signal;HPM_P1;HPM_P2
2024/02/23 00:01:06;;;;;;;5.70;2.80;;;;;;;8.63;52.70;100237.48;105430;1257;60286;-58
2024/02/23 00:03:36;;;;;;;2.70;0.70;;;;;;;8.60;52.80;100233.50;105407;1257;62713;-61
2024/02/23 00:06:04;;;;;;;6.50;3.10;;;;;;;8.57;52.87;100233.19;106598;1257;59717;-58
2024/02/23 00:08:32;;;;;;;4.50;1.60;;;;;;;8.55;52.96;100230.34;105353;1255;59819;-60
2024/02/23 00:11:00;;;;;;;2.40;0.70;;;;;;;8.52;52.95;100226.16;105922;1251;64288;-61
2024/02/23 00:13:28;;;;;;;6.00;2.80;;;;;;;8.49;53.07;100225.58;106057;1251;61591;-60
2024/02/23 00:15:56;;;;;;;4.70;1.00;;;;;;;8.45;53.19;100219.73;105494;1257;62563;-59
2024/02/23 00:18:24;;;;;;;6.70;1.60;;;;;;;8.42;53.33;100217.50;105218;1253;59742;-62
2024/02/23 00:20:51;;;;;;;4.40;1.60;;;;;;;8.37;53.52;100217.80;108431;1253;58177;-63
2024/02/23 00:23:19;;;;;;;4.20;0.80;;;;;;;8.38;53.57;100217.94;105427;1258;64333;-63
2024/02/23 00:25:47;;;;;;;5.60;2.50;;;;;;;8.43;53.54;100208.83;105532;1257;60325;-62
2024/02/23 00:28:15;;;;;;;3.00;0.90;;;;;;;8.50;53.53;100204.00;105317;1256;63810;-59
2024/02/23 00:30:43;;;;;;;3.60;0.90;;;;;;;8.52;53.58;100199.25;105316;1259;59631;-62
2024/02/23 00:33:10;;;;;;;5.80;2.90;;;;;;;8.51;53.57;100194.30;105327;1257;60149;-58
2024/02/23 00:35:38;;;;;;;2.90;0.80;;;;;;;8.50;53.62;100195.06;105314;1258;64277;-57
2024/02/23 00:38:07;;;;;;;4.60;1.20;;;;;;;8.50;53.64;100192.98;105375;1256;60263;-60
2024/02/23 00:40:35;;;;;;;6.20;2.80;;;;;;;8.47;53.54;100192.50;105332;1255;65296;-57
2024/02/23 00:43:03;;;;;;;4.20;1.30;;;;;;;8.45;53.70;100185.96;105728;1266;59640;-60
2024/02/23 00:45:30;;;;;;;5.10;1.80;;;;;;;8.45;53.82;100193.52;105937;1252;59999;-61
2024/02/23 00:47:59;;;;;;;7.90;3.40;;;;;;;8.41;53.85;100191.52;105336;1251;62975;-60
2024/02/23 00:50:27;;;;;;;4.10;1.00;;;;;;;8.36;54.01;100186.23;105441;1266;60617;-57
2024/02/23 00:52:55;;;;;;;4.60;1.40;;;;;;;8.33;54.14;100188.41;106103;1257;62617;-60
2024/02/23 00:55:25;;;;;;;3.90;1.00;;;;;;;8.35;54.20;100186.38;105386;1258;59714;-67
2024/02/23 00:57:52;;;;;;;6.20;3.10;;;;;;;8.41;54.15;100183.31;105319;1253;59781;-56
2024/02/23 01:00:20;;;;;;;5.80;1.60;;;;;;;8.45;54.02;100180.38;105255;1251;65293;-60
2024/02/23 01:02:49;;;;;;;5.80;2.60;;;;;;;8.48;53.99;100182.99;105465;1251;61882;-61
2024/02/23 01:05:17;;;;;;;4.00;1.10;;;;;;;8.46;54.00;100185.77;105287;1255;63182;-59
2024/02/23 01:07:45;;;;;;;3.70;1.30;;;;;;;8.44;54.02;100183.98;105663;1257;60437;-60
2024/02/23 01:10:13;;;;;;;7.50;3.90;;;;;;;8.39;54.02;100184.84;105404;1254;60555;-56
2024/02/23 01:12:40;;;;;;;3.50;1.20;;;;;;;8.36;54.08;100186.59;105519;1251;65489;-57
2024/02/23 01:15:09;;;;;;;6.40;3.20;;;;;;;8.34;54.24;100185.72;106529;1256;60439;-58
2024/02/23 01:17:38;;;;;;;3.80;1.30;;;;;;;8.33;54.25;100190.33;105365;1255;62542;-57
2024/02/23 01:20:06;;;;;;;5.70;1.60;;;;;;;8.31;54.23;100187.50;105796;1258;60600;-57
2024/02/23 01:22:34;;;;;;;5.30;1.60;;;;;;;8.29;54.30;100182.42;105922;1266;60440;-56
2024/02/23 01:25:02;;;;;;;6.60;3.30;;;;;;;8.26;54.30;100185.73;105279;1261;65269;-56
2024/02/23 01:27:29;;;;;;;5.90;1.40;;;;;;;8.26;54.38;100191.39;106770;1251;62026;-55
2024/02/23 01:29:57;;;;;;;5.20;1.60;;;;;;;8.29;54.37;100192.90;105343;1255;63809;-60
2024/02/23 01:32:25;;;;;;;4.10;1.30;;;;;;;8.35;54.33;100193.88;106020;1258;60526;-58
2024/02/23 01:34:52;;;;;;;5.40;1.30;;;;;;;8.40;54.35;100187.91;107013;1257;60529;-57
2024/02/23 01:37:20;;;;;;;6.90;3.50;;;;;;;8.43;54.35;100182.27;105552;1252;64613;-59
2024/02/23 01:39:52;;;;;;;6.30;1.90;;;;;;;8.43;54.40;100176.17;105254;1251;61594;-57
2024/02/23 01:42:19;;;;;;;6.80;3.40;;;;;;;8.42;54.29;100170.45;105236;1255;63821;-57
2024/02/23 01:44:47;;;;;;;4.00;1.50;;;;;;;8.41;54.30;100176.26;105151;1253;60460;-56
2024/02/23 01:47:15;;;;;;;4.20;1.70;;;;;;;8.40;54.42;100177.09;105419;1257;60344;-57
2024/02/23 01:49:44;;;;;;;7.70;3.70;;;;;;;8.36;54.48;100171.20;105573;1253;65026;-55
2024/02/23 01:52:11;;;;;;;5.50;2.00;;;;;;;8.33;54.49;100167.23;106528;1256;60450;-56
2024/02/23 01:54:39;;;;;;;3.70;0.90;;;;;;;8.30;54.55;100167.48;105549;1259;64208;-57
2024/02/23 01:57:07;;;;;;;5.30;1.50;;;;;;;8.28;54.65;100170.63;105549;1260;60492;-58
2024/02/23 01:59:55;;;;;;;6.70;3.80;;;;;;;8.26;54.75;100171.48;107712;1256;60536;-55
2024/02/23 02:02:24;;;;;;;3.40;1.30;;;;;;;8.24;54.77;100173.73;106185;1256;63710;-58
2024/02/23 02:04:51;;;;;;;6.40;1.30;;;;;;;8.27;54.79;100175.19;105301;1257;61868;-55
2024/02/23 02:07:22;;;;;;;4.60;1.70;;;;;;;8.33;54.74;100171.09;105388;1255;63819;-57
2024/02/23 02:09:50;;;;;;;7.70;3.90;;;;;;;8.39;54.68;100168.94;105452;1254;60962;-58
2024/02/23 02:12:27;;;;;;;4.90;1.60;;;;;;;8.40;54.74;100168.65;105428;1256;60510;-56
2024/02/23 02:14:55;;;;;;;5.70;1.60;;;;;;;8.38;54.70;100168.80;105406;1256;65181;-59
2024/02/23 02:17:23;;;;;;;7.60;3.80;;;;;;;8.36;54.81;100165.27;105481;1254;61705;-58
2024/02/23 02:19:51;;;;;;;6.50;2.20;;;;;;;8.35;54.93;100163.80;105354;1254;62514;-57
2024/02/23 02:22:20;;;;;;;4.20;1.40;;;;;;;8.32;54.93;100160.49;105436;1254;60539;-57
2024/02/23 02:24:48;;;;;;;5.00;1.70;;;;;;;8.29;54.99;100157.92;105323;1256;61013;-57
2024/02/23 02:27:15;;;;;;;7.90;2.40;;;;;;;8.27;55.09;100158.45;105414;1256;65679;-60
2024/02/23 02:29:43;;;;;;;7.30;4.00;;;;;;;8.24;55.24;100154.12;105378;1254;61597;-59
2024/02/23 02:32:11;;;;;;;4.40;1.70;;;;;;;8.23;55.29;100157.36;105561;1257;62518;-58
2024/02/23 02:34:38;;;;;;;5.80;2.70;;;;;;;8.26;55.37;100156.59;105302;1256;60568;-55
2024/02/23 02:37:07;;;;;;;7.00;3.90;;;;;;;8.31;55.23;100155.52;105303;1260;60780;-59
2024/02/23 02:39:35;;;;;;;5.90;2.00;;;;;;;8.36;55.27;100152.73;106707;1257;63737;-60
2024/02/23 02:42:03;;;;;;;5.30;1.90;;;;;;;8.39;55.43;100152.30;105358;1257;61714;-59
2024/02/23 02:44:31;;;;;;;8.60;4.60;;;;;;;8.43;55.28;100151.05;105245;1260;64230;-57
2024/02/23 02:46:59;;;;;;;6.90;2.40;;;;;;;8.41;55.22;100150.77;105396;1257;60642;-60
2024/02/23 02:49:27;;;;;;;8.30;4.60;;;;;;;8.41;55.19;100148.52;105901;1255;60502;-58
2024/02/23 02:51:54;;;;;;;4.30;1.60;;;;;;;8.40;55.15;100147.20;105357;1254;65304;-58
2024/02/23 02:54:22;;;;;;;4.50;2.00;;;;;;;8.36;55.23;100145.19;105976;1257;61721;-56
2024/02/23 02:56:50;;;;;;;4.80;1.60;;;;;;;8.30;55.37;100143.34;105512;1257;63809;-56
2024/02/23 02:59:18;;;;;;;8.60;5.20;;;;;;;8.23;55.51;100144.06;105340;1266;60614;-58
2024/02/23 03:01:52;;;;;;;5.40;2.80;;;;;;;8.21;55.60;100141.92;105300;1257;60543;-55
2024/02/23 03:04:20;;;;;;;7.10;3.50;;;;;;;8.23;55.64;100143.04;105207;1254;65020;-56
2024/02/23 03:06:48;;;;;;;6.60;2.30;;;;;;;8.27;55.69;100146.90;105319;1254;61518;-57
2024/02/23 03:09:16;;;;;;;8.50;4.90;;;;;;;8.32;55.66;100150.92;105383;1254;63879;-57
2024/02/23 03:11:44;;;;;;;5.10;2.10;;;;;;;8.33;55.70;100151.85;105516;1258;62109;-57
2024/02/23 03:14:12;;;;;;;4.90;1.80;;;;;;;8.32;55.76;100150.86;105301;1254;60501;-56
2024/02/23 03:16:40;;;;;;;5.20;1.40;;;;;;;8.31;55.82;100157.04;105791;1257;63968;-60
2024/02/23 03:19:07;;;;;;;7.50;4.40;;;;;;;8.30;55.91;100158.58;105473;1254;61695;-60
2024/02/23 03:21:35;;;;;;;5.10;1.40;;;;;;;8.28;55.89;100156.28;105560;1251;63816;-57
2024/02/23 03:24:06;;;;;;;6.10;2.00;;;;;;;8.25;55.90;100153.67;105169;1256;60561;-57
2024/02/23 03:26:34;;;;;;;8.10;4.80;;;;;;;8.22;56.02;100160.90;105791;1256;60600;-58
2024/02/23 03:29:02;;;;;;;4.00;1.30;;;;;;;8.20;56.12;100165.44;105425;1254;63709;-58
2024/02/23 03:31:29;;;;;;;5.70;1.80;;;;;;;8.23;56.01;100162.42;105396;1254;61536;-60
2024/02/23 03:33:58;;;;;;;4.60;1.40;;;;;;;8.29;56.03;100158.80;105119;1254;63977;-57
2024/02/23 03:36:26;;;;;;;5.60;1.80;;;;;;;8.34;56.08;100162.30;105366;1257;60414;-59
2024/02/23 03:38:54;;;;;;;8.80;4.70;;;;;;;8.38;56.04;100165.34;105463;1256;60344;-57
2024/02/23 03:41:21;;;;;;;6.00;2.00;;;;;;;8.41;56.01;100163.89;105387;1257;65059;-56
2024/02/23 03:43:49;;;;;;;9.40;4.90;;;;;;;8.43;56.02;100160.45;105266;1254;61703;-57
2024/02/23 03:46:17;;;;;;;5.70;1.80;;;;;;;8.42;55.92;100158.77;105447;1257;63805;-57
2024/02/23 03:48:45;;;;;;;6.80;1.80;;;;;;;8.37;55.93;100158.01;105474;1255;60325;-57
2024/02/23 03:51:14;;;;;;;7.70;4.30;;;;;;;8.36;56.09;100156.39;105361;1254;60437;-57
2024/02/23 03:53:41;;;;;;;6.10;1.80;;;;;;;8.32;56.04;100155.47;105507;1256;73901;-54
2024/02/23 03:56:09;;;;;;;8.30;4.70;;;;;;;8.29;56.08;100157.77;105404;1254;63077;-61
2024/02/23 03:58:37;;;;;;;5.50;1.50;;;;;;;8.27;56.24;100157.74;105619;1257;62761;-64
2024/02/23 04:01:05;;;;;;;6.80;2.30;;;;;;;8.28;56.11;100155.89;105180;1261;60497;-64
2024/02/23 04:03:32;;;;;;;8.20;4.00;;;;;;;8.31;56.29;100150.93;105198;1259;60469;-60
2024/02/23 04:06:00;;;;;;;6.00;1.60;;;;;;;8.35;56.27;100148.23;106144;1252;63976;-68
2024/02/23 04:08:28;;;;;;;5.10;1.40;;;;;;;8.37;56.29;100150.02;105288;1254;62164;-60
2024/02/23 04:10:56;;;;;;;5.10;1.80;;;;;;;8.35;56.21;100147.17;105362;1257;63843;-59
2024/02/23 04:13:24;;;;;;;7.80;4.60;;;;;;;8.34;56.29;100149.70;105367;1260;62655;-64
2024/02/23 04:15:51;;;;;;;4.90;1.40;;;;;;;8.34;56.31;100147.97;105485;1258;60597;-65
2024/02/23 04:18:19;;;;;;;6.70;2.80;;;;;;;8.32;56.32;100144.45;105238;1251;63808;-57
2024/02/23 04:20:47;;;;;;;9.10;1.70;;;;;;;8.28;56.38;100144.35;105299;1256;61488;-65
2024/02/23 04:23:15;;;;;;;8.00;4.80;;;;;;;8.25;56.49;100141.52;105224;1254;63738;-64
2024/02/23 04:25:42;;;;;;;3.00;0.90;;;;;;;8.21;56.58;100144.05;105323;1253;60521;-60
2024/02/23 04:28:11;;;;;;;4.30;1.60;;;;;;;8.23;56.58;100146.86;105659;1257;62891;-61
2024/02/23 04:30:39;;;;;;;5.90;2.00;;;;;;;8.26;56.52;100146.45;105344;1254;65078;-61
2024/02/23 04:33:07;;;;;;;8.40;4.70;;;;;;;8.28;56.51;100144.21;105407;1254;61787;-62
2024/02/23 04:35:34;;;;;;;6.50;2.70;;;;;;;8.27;56.61;100150.73;106451;1257;62862;-65
2024/02/23 04:38:02;;;;;;;9.20;5.10;;;;;;;8.24;56.72;100153.77;105491;1258;60758;-58
2024/02/23 04:40:30;;;;;;;6.90;2.90;;;;;;;8.23;56.79;100152.32;105388;1252;60543;-58
2024/02/23 04:42:58;;;;;;;6.20;1.70;;;;;;;8.22;56.82;100156.91;107512;1254;65159;-61
2024/02/23 04:45:25;;;;;;;9.20;5.30;;;;;;;8.19;56.85;100162.36;105208;1254;61841;-61
2024/02/23 04:47:53;;;;;;;5.40;2.10;;;;;;;8.17;56.94;100170.90;106070;1254;62554;-67
2024/02/23 04:50:21;;;;;;;6.00;2.20;;;;;;;8.14;57.02;100172.69;105508;1257;60635;-61
2024/02/23 04:52:50;;;;;;;5.10;2.50;;;;;;;8.10;57.16;100176.48;105252;1255;60335;-67
2024/02/23 04:55:17;;;;;;;9.30;4.90;;;;;;;8.07;57.25;100178.09;105412;1257;64977;-63
2024/02/23 04:57:45;;;;;;;5.00;1.60;;;;;;;8.10;57.22;100182.25;105247;1256;60466;-69
2024/02/23 05:00:13;;;;;;;4.50;1.10;;;;;;;8.17;57.23;100187.84;105443;1257;66052;-61
2024/02/23 05:02:41;;;;;;;5.60;1.90;;;;;;;8.23;57.22;100187.23;107123;1257;60424;-60
2024/02/23 05:05:09;;;;;;;6.20;1.80;;;;;;;8.30;57.14;100188.06;105487;1254;60462;-67
2024/02/23 05:07:37;;;;;;;7.80;4.50;;;;;;;8.35;57.21;100189.45;105088;1256;65588;-64
2024/02/23 05:10:06;;;;;;;4.60;1.90;;;;;;;8.39;57.13;100190.23;106447;1254;61892;-60
2024/02/23 05:12:33;;;;;;;10.30;4.70;;;;;;;8.42;57.04;100191.23;105138;1254;64226;-68
2024/02/23 05:15:01;;;;;;;5.90;1.90;;;;;;;8.44;56.92;100195.02;105223;1254;60780;-62
2024/02/23 05:17:29;;;;;;;8.30;4.70;;;;;;;8.42;56.88;100197.54;105815;1254;60626;-56
2024/02/23 05:19:57;;;;;;;5.70;2.30;;;;;;;8.41;56.87;100198.20;105029;1254;63716;-65
2024/02/23 05:22:25;;;;;;;4.70;1.60;;;;;;;8.37;56.99;100196.48;105243;1254;61517;-65
2024/02/23 05:24:52;;;;;;;7.70;4.70;;;;;;;8.34;57.11;100195.31;105126;1256;62542;-61
2024/02/23 05:27:20;;;;;;;5.30;1.80;;;;;;;8.33;57.09;100200.80;105388;1253;60558;-62
2024/02/23 05:29:48;;;;;;;5.80;1.40;;;;;;;8.36;57.05;100201.94;105143;1254;60619;-68
2024/02/23 05:32:17;;;;;;;5.70;1.80;;;;;;;8.42;57.09;100202.64;105024;1256;63707;-65
2024/02/23 05:34:44;;;;;;;9.10;5.30;;;;;;;8.50;57.02;100207.98;105590;1254;68859;-60
2024/02/23 05:37:12;;;;;;;7.20;2.40;;;;;;;8.53;56.88;100208.30;109109;1254;63830;-57
2024/02/23 05:39:40;;;;;;;6.60;2.50;;;;;;;8.53;56.99;100214.91;109274;1253;59525;-63
2024/02/23 05:42:07;;;;;;;9.00;5.60;;;;;;;8.56;56.99;100219.26;109176;1253;58574;-58
2024/02/23 05:44:35;;;;;;;8.30;2.10;;;;;;;8.58;56.91;100222.60;109259;1253;63706;-62
2024/02/23 05:47:03;;;;;;;9.00;5.20;;;;;;;8.60;56.95;100223.87;109232;1252;63578;-61
2024/02/23 05:49:31;;;;;;;5.10;1.80;;;;;;;8.63;56.84;100220.80;109144;1254;62608;-60
2024/02/23 05:51:59;;;;;;;8.80;4.90;;;;;;;8.66;56.89;100216.56;108238;1254;59244;-63
2024/02/23 05:54:26;;;;;;;6.80;3.00;;;;;;;8.68;56.90;100216.05;105604;1252;60642;-61
2024/02/23 05:56:54;;;;;;;4.70;1.40;;;;;;;8.75;56.72;100222.08;105756;1254;75174;-64
2024/02/23 05:59:22;;;;;;;8.30;5.70;;;;;;;8.81;56.49;100222.86;105786;1253;61525;-66
2024/02/23 06:01:52;;;;;;;3.80;1.50;;;;;;;8.84;56.40;100226.95;106179;1254;66492;-66
2024/02/23 06:04:19;;;;;;;10.00;5.60;;;;;;;8.85;56.31;100227.11;106250;1260;60463;-64
2024/02/23 06:06:47;;;;;;;7.00;1.90;;;;;;;8.81;56.41;100220.73;105949;1253;60446;-64
2024/02/23 06:09:15;;;;;;;11.30;5.80;;;;;;;8.76;56.48;100219.67;106214;1255;65237;-66
2024/02/23 06:11:43;;;;;;;6.30;2.20;;;;;;;8.72;56.62;100218.60;106031;1255;60466;-61
2024/02/23 06:14:11;;;;;;;10.40;6.40;;;;;;;8.69;56.76;100222.87;105791;1254;62531;-65
2024/02/23 06:16:40;;;;;;;6.50;2.40;;;;;;;8.66;56.71;100221.34;106184;1254;60482;-66
2024/02/23 06:19:08;;;;;;;11.10;7.10;;;;;;;8.61;56.80;100227.98;106206;1254;60426;-61
2024/02/23 06:21:36;;;;;;;7.50;3.20;;;;;;;8.57;56.96;100232.85;106296;1253;63729;-69
2024/02/23 06:24:04;;;;;;;6.30;2.20;;;;;;;8.58;57.02;100234.71;106000;1256;60561;-65
2024/02/23 06:26:32;;;;;;;6.10;2.70;;;;;;;8.63;57.02;100243.25;107150;1254;64307;-60
2024/02/23 06:29:00;;;;;;;10.00;6.20;;;;;;;8.69;57.04;100247.48;105372;1254;60373;-60
2024/02/23 06:31:28;;;;;;;7.30;2.50;;;;;;;8.74;57.00;100249.05;105853;1256;60376;-62
2024/02/23 06:33:55;;;;;;;12.60;6.80;;;;;;;8.75;56.92;100251.80;105170;1254;63865;-58
2024/02/23 06:36:23;;;;;;;9.30;3.60;;;;;;;8.74;56.83;100248.16;106244;1253;61818;-62
2024/02/23 06:38:51;;;;;;;10.70;7.30;;;;;;;8.73;56.90;100246.48;105533;1254;63811;-67
2024/02/23 06:41:18;;;;;;;8.70;2.90;;;;;;;8.72;56.96;100243.92;106339;1254;61316;-62
2024/02/23 06:43:46;;;;;;;13.50;7.50;;;;;;;8.71;57.04;100242.96;105372;1251;60495;-62
2024/02/23 06:46:14;;;;;;;7.00;3.20;;;;;;;8.70;56.95;100251.59;106399;1252;63873;-57
2024/02/23 06:48:41;;;;;;;8.90;3.10;;;;;;;8.73;56.90;100255.02;105246;1256;60558;-60
2024/02/23 06:51:09;;;;;;;10.40;7.00;;;;;;;8.80;56.80;100260.33;106037;1256;64274;-59
2024/02/23 06:53:37;;;;;;;10.30;3.50;;;;;;;8.88;56.69;100253.28;105525;1257;60778;-67
2024/02/23 06:56:06;;;;;;;11.00;7.40;;;;;;;8.91;56.54;100252.54;107892;1254;60901;-64
2024/02/23 06:58:34;;;;;;;7.80;3.00;;;;;;;8.90;56.46;100253.42;105596;1254;63818;-65
2024/02/23 07:01:03;;;;;;;11.90;8.00;;;;;;;8.88;56.49;100247.48;107338;1254;62031;-63
2024/02/23 07:03:31;;;;;;;9.10;4.00;;;;;;;8.86;56.53;100238.70;107265;1253;65878;-66
2024/02/23 07:05:59;;;;;;;13.20;9.00;;;;;;;8.86;56.59;100232.45;106229;1254;60539;-66
2024/02/23 07:08:27;;;;;;;7.00;3.00;;;;;;;8.85;56.59;100229.86;106201;1254;60613;-63
2024/02/23 07:10:54;;;;;;;7.90;3.70;;;;;;;8.83;56.54;100230.23;105871;1254;64788;-57
2024/02/23 07:13:22;;;;;;;11.80;8.30;;;;;;;8.83;56.65;100230.40;105870;1254;62540;-66
2024/02/23 07:15:50;;;;;;;7.90;3.50;;;;;;;8.88;56.49;100234.40;105388;1254;63862;-60
2024/02/23 07:18:18;;;;;;;11.20;8.20;;;;;;;8.93;56.34;100239.94;105404;1254;60469;-62
2024/02/23 07:20:46;;;;;;;8.40;3.90;;;;;;;8.94;56.37;100244.21;105648;1254;60434;-65
2024/02/23 07:23:16;;;;;;;11.40;7.50;;;;;;;8.96;56.38;100249.01;106011;1254;65178;-59
2024/02/23 07:25:44;;;;;;;7.10;3.90;;;;;;;8.97;56.40;100256.30;105553;1254;68706;-61
2024/02/23 07:28:11;;;;;;;12.90;9.00;;;;;;;8.97;56.37;100256.93;105378;1254;63776;-59
2024/02/23 07:30:39;;;;;;;7.30;2.60;;;;;;;8.97;56.25;100260.14;105792;1253;60489;-61
2024/02/23 07:33:07;;;;;;;7.20;2.70;;;;;;;8.95;56.37;100259.92;105809;1252;60418;-61
2024/02/23 07:35:37;;;;;;;7.90;3.80;;;;;;;8.92;56.30;100254.40;106133;1252;64971;-63
2024/02/23 07:38:05;;;;;;;14.50;8.80;;;;;;;8.95;56.20;100259.41;105364;1254;70531;-62
2024/02/23 07:40:33;;;;;;;8.40;4.10;;;;;;;9.00;56.20;100255.85;106990;1254;64733;-63
2024/02/23 07:43:00;;;;;;;12.20;8.30;;;;;;;9.02;56.31;100256.77;105366;1257;60565;-59
2024/02/23 07:45:28;;;;;;;9.40;3.50;;;;;;;9.02;56.29;100259.91;105597;1254;60335;-60
2024/02/23 07:47:56;;;;;;;13.40;8.90;;;;;;;9.02;56.31;100256.90;105576;1256;65010;-62
2024/02/23 07:50:24;;;;;;;10.00;3.50;;;;;;;9.00;56.14;100260.17;106311;1253;61640;-62
2024/02/23 07:52:51;;;;;;;13.10;9.20;;;;;;;8.97;56.15;100267.15;105686;1254;63787;-59
2024/02/23 07:55:19;;;;;;;7.80;3.20;;;;;;;8.94;56.30;100270.67;105312;1257;60418;-64
2024/02/23 07:57:47;;;;;;;15.00;8.30;;;;;;;8.96;56.34;100274.39;105529;1254;60546;-61
2024/02/23 08:00:16;;;;;;;11.20;4.10;;;;;;;9.02;56.22;100279.50;106369;1256;65137;-61
2024/02/23 08:02:44;;;;;;;11.80;7.90;;;;;;;9.05;56.20;100286.48;106222;1256;60397;-61
2024/02/23 08:05:11;;;;;;;8.20;3.20;;;;;;;9.06;56.29;100281.99;106095;1254;63840;-62
2024/02/23 08:07:39;;;;;;;12.20;8.10;;;;;;;9.07;56.14;100280.89;106151;1253;60523;-61
2024/02/23 08:10:08;;;;;;;6.50;3.90;;;;;;;9.07;56.18;100286.13;105370;1256;60368;-67
2024/02/23 08:12:36;;;;;;;9.10;4.00;;;;;;;9.06;56.14;100288.14;106098;1254;63719;-65
2024/02/23 08:15:09;;;;;;;13.70;9.40;;;;;;;9.02;56.05;100298.19;105519;1254;61510;-61
2024/02/23 08:17:37;;;;;;;9.70;3.60;;;;;;;9.00;56.21;100305.73;105825;1257;63904;-61
2024/02/23 08:20:06;;;;;;;8.90;3.30;;;;;;;9.01;56.22;100300.71;106559;1256;60505;-62
2024/02/23 08:22:33;;;;;;;13.70;8.30;;;;;;;9.07;56.26;100297.02;106445;1254;60637;-65
2024/02/23 08:25:01;;;;;;;6.50;3.10;;;;;;;9.10;56.17;100298.64;105475;1254;65541;-62
2024/02/23 08:27:29;;;;;;;11.80;8.10;;;;;;;9.11;56.24;100300.70;106270;1256;62171;-59
2024/02/23 08:29:57;;;;;;;7.90;2.90;;;;;;;9.10;56.33;100299.90;105423;1253;62669;-63
2024/02/23 08:32:26;;;;;;;11.40;7.40;;;;;;;9.10;56.31;100306.04;105762;1255;60655;-61
2024/02/23 08:34:59;;;;;;;7.50;2.80;;;;;;;9.11;56.30;100312.58;106492;1254;60562;-61
2024/02/23 08:37:27;;;;;;;8.90;3.30;;;;;;;9.08;56.23;100312.80;107075;1251;63736;-66
2024/02/23 08:39:55;;;;;;;16.20;9.50;;;;;;;9.03;56.37;100309.69;106064;1257;70348;-59
2024/02/23 08:42:22;;;;;;;9.20;3.80;;;;;;;9.01;56.52;100308.60;105209;1253;62643;-61
2024/02/23 08:44:50;;;;;;;11.70;8.10;;;;;;;9.05;56.57;100311.10;106201;1256;60552;-65
2024/02/23 08:47:18;;;;;;;7.30;3.10;;;;;;;9.13;56.55;100310.38;105722;1259;60357;-64
2024/02/23 08:49:46;;;;;;;11.80;8.10;;;;;;;9.18;56.48;100306.86;105365;1254;64284;-61
2024/02/23 08:52:14;;;;;;;9.10;3.60;;;;;;;9.21;56.33;100307.49;106982;1253;63708;-65
2024/02/23 08:54:41;;;;;;;13.50;9.60;;;;;;;9.21;56.33;100312.21;105441;1256;63722;-60
2024/02/23 08:57:09;;;;;;;10.50;3.90;;;;;;;9.17;56.38;100308.13;105318;1257;60613;-61
2024/02/23 08:59:37;;;;;;;14.10;9.80;;;;;;;9.13;56.46;100312.46;105599;1253;60437;-56
2024/02/23 09:02:05;;;;;;;7.60;3.70;;;;;;;9.10;56.59;100312.17;105423;1254;63684;-59
2024/02/23 09:04:33;;;;;;;12.50;8.40;;;;;;;9.13;56.66;100317.73;105558;1255;61551;-57
2024/02/23 09:07:01;;;;;;;8.40;4.00;;;;;;;9.18;56.58;100318.55;105283;1253;66079;-57
2024/02/23 09:09:29;;;;;;;13.30;8.50;;;;;;;9.22;56.56;100313.72;105978;1253;60498;-60
2024/02/23 09:11:58;;;;;;;10.10;3.40;;;;;;;9.24;56.52;100317.05;105300;1254;267970;-65
2024/02/23 09:15:26;;;;;;;8.30;3.80;;;;;;;8.89;57.56;100320.87;102099;1297;601221;-58
2024/02/23 09:17:54;;;;;;;13.70;10.00;;;;;;;9.26;56.64;100321.30;105010;1270;59773;-57
2024/02/23 09:20:22;;;;;;;7.80;4.10;;;;;;;9.34;56.35;100326.11;104217;1272;59355;-61
2024/02/23 09:22:50;;;;;;;12.70;8.80;;;;;;;9.39;56.39;100324.83;104434;1267;62115;-63
2024/02/23 09:25:18;;;;;;;6.80;2.80;;;;;;;9.47;56.20;100325.66;104203;1267;61536;-61
2024/02/23 09:27:46;;;;;;;12.70;9.20;;;;;;;9.48;56.18;100329.02;104379;1271;168864;-60
2024/02/23 09:30:14;;;;;;;8.90;3.40;;;;;;;9.48;56.30;100329.38;104456;1270;59276;-60
2024/02/23 09:32:44;;;;;;;13.70;9.70;;;;;;;9.48;56.32;100323.77;105475;1269;59436;-58
2024/02/23 09:35:12;;;;;;;8.90;4.00;;;;;;;9.48;56.31;100326.05;105352;1254;63409;-58
2024/02/23 09:37:40;;;;;;;13.90;9.30;;;;;;;9.48;56.57;100328.86;105070;1260;60299;-58
2024/02/23 09:40:09;;;;;;;8.70;3.50;;;;;;;9.48;56.59;100332.58;105532;1254;62835;-60
2024/02/23 09:42:38;;;;;;;13.90;9.20;;;;;;;9.51;56.49;100331.28;106224;1254;59739;-59
2024/02/23 09:45:05;;;;;;;14.00;9.20;;;;;;;9.58;56.46;100338.98;105933;1257;61408;-61
2024/02/23 09:47:33;;;;;;;7.40;3.20;;;;;;;9.60;56.46;100338.85;106219;1254;64859;-59
2024/02/23 09:50:04;;;;;;;14.40;9.60;;;;;;;9.60;56.54;100338.34;106291;1254;60269;-62
2024/02/23 09:52:32;;;;;;;9.70;3.60;;;;;;;9.60;56.44;100340.73;106702;1259;66832;-62
2024/02/23 09:55:00;;;;;;;14.90;9.80;;;;;;;9.60;56.49;100342.36;106234;1256;59763;-62
2024/02/23 09:57:28;;;;;;;6.80;3.30;;;;;;;9.58;56.58;100338.14;105069;1254;60111;-63
2024/02/23 09:59:55;;;;;;;16.40;10.30;;;;;;;9.56;56.57;100332.83;108533;1252;64213;-63
2024/02/23 10:02:23;;;;;;;10.50;5.20;;;;;;;9.57;56.61;100338.71;106220;1254;62061;-67
2024/02/23 10:04:51;;;;;;;12.40;8.00;;;;;;;9.64;56.60;100337.70;105068;1251;62537;-59
2024/02/23 10:07:19;;;;;;;7.60;2.80;;;;;;;9.74;56.48;100335.36;109165;1253;62045;-67
2024/02/23 10:09:47;;;;;;;12.90;9.10;;;;;;;9.81;56.49;100336.20;109016;1253;57596;-61
2024/02/23 10:12:16;;;;;;;11.40;4.30;;;;;;;9.87;56.39;100331.52;109175;1254;64193;-58
2024/02/23 10:14:44;;;;;;;14.90;9.70;;;;;;;9.93;56.29;100326.81;109097;1251;60780;-62
2024/02/23 10:17:11;;;;;;;12.80;8.90;;;;;;;9.98;56.14;100329.41;109163;1254;62542;-60
2024/02/23 10:19:39;;;;;;;13.90;9.70;;;;;;;10.04;56.11;100334.39;109156;1253;57393;-58
2024/02/23 10:22:07;;;;;;;9.10;4.10;;;;;;;10.09;56.02;100332.30;109157;1253;57538;-57
2024/02/23 10:24:34;;;;;;;14.50;10.00;;;;;;;10.14;55.88;100335.92;109234;1251;64602;-59
2024/02/23 10:27:02;;;;;;;7.60;3.50;;;;;;;10.16;55.88;100336.59;109062;1253;60256;-60
2024/02/23 10:29:30;;;;;;;11.40;8.40;;;;;;;10.24;55.88;100333.77;109209;1253;62509;-59
2024/02/23 10:31:58;;;;;;;13.70;9.20;;;;;;;10.29;55.77;100335.06;106699;1257;59526;-59
2024/02/23 10:34:26;;;;;;;13.90;9.20;;;;;;;10.30;55.77;100336.91;109135;1253;57489;-58
2024/02/23 10:36:54;;;;;;;15.30;10.80;;;;;;;10.31;55.78;100332.98;109209;1252;64319;-59
2024/02/23 10:39:22;;;;;;;15.00;10.40;;;;;;;10.33;55.66;100332.67;106694;1256;60328;-59
2024/02/23 10:42:02;;;;;;;9.30;4.50;;;;;;;10.32;55.73;100332.78;105926;1258;62726;-57
2024/02/23 10:44:30;;;;;;;13.80;10.00;;;;;;;10.31;55.85;100336.02;105836;1254;59635;-56
2024/02/23 10:46:59;;;;;;;8.90;4.60;;;;;;;10.34;56.05;100340.88;105938;1257;59772;-57
2024/02/23 10:49:27;;;;;;;14.60;10.10;;;;;;;10.43;56.04;100342.44;105963;1257;64397;-56
2024/02/23 10:51:56;;;;;;;15.50;9.80;;;;;;;10.52;55.78;100340.79;105784;1259;61579;-56
2024/02/23 10:54:24;;;;;;;15.10;10.80;;;;;;;10.54;55.75;100338.85;105205;1254;63793;-56
2024/02/23 10:56:52;;;;;;;9.40;5.10;;;;;;;10.54;55.78;100335.41;105131;1254;60064;-57
2024/02/23 10:59:22;;;;;;;16.20;11.10;;;;;;;10.53;55.68;100334.71;106163;1257;59538;-56
2024/02/23 11:01:51;;;;;;;13.50;9.90;;;;;;;10.52;55.81;100337.27;105334;1253;62924;-55
2024/02/23 11:04:20;;;;;;;15.00;11.00;;;;;;;10.51;55.94;100333.52;105241;1257;60264;-61
2024/02/23 11:06:51;;;;;;;7.60;3.60;;;;;;;10.52;56.10;100334.30;105384;1257;63456;-64
2024/02/23 11:09:23;;;;;;;16.70;9.80;;;;;;;10.58;56.08;100334.91;106829;1254;59671;-62
2024/02/23 11:11:56;;;;;;;14.80;9.80;;;;;;;10.67;56.09;100335.25;106131;1256;59673;-63
2024/02/23 11:14:35;;;;;;;13.60;9.70;;;;;;;10.75;55.85;100327.70;105589;1257;62914;-60
2024/02/23 11:17:03;;;;;;;7.80;4.40;;;;;;;10.77;55.83;100328.19;105978;1255;60234;-65
2024/02/23 11:19:39;;;;;;;14.70;10.40;;;;;;;10.77;55.70;100327.16;105962;1255;63978;-61
2024/02/23 11:22:10;;;;;;;13.90;10.00;;;;;;;10.80;55.81;100330.48;105582;1254;59762;-66
2024/02/23 11:24:50;;;;;;;9.60;4.60;;;;;;;10.82;55.75;100328.59;105231;1258;59671;-65
2024/02/23 11:27:22;;;;;;;14.60;11.20;;;;;;;10.79;55.72;100328.11;105108;1259;62897;-59